sensor_id;sensor_type;location;lat;lon;timestamp;P1;durP1;ratioP1;P2;durP2;ratioP2
16401;SDS011;8310;44.626;11.176;2023-01-10T00:00:03;12.23;;;9.68;;
16401;SDS011;8310;44.626;11.176;2023-01-10T00:02:32;12.18;;;10.48;;
16401;SDS011;8310;44.626;11.176;2023-01-10T00:04:59;12.70;;;9.88;;
16401;SDS011;8310;44.626;11.176;2023-01-10T00:07:27;14.20;;;10.23;;
16401;SDS011;8310;44.626;11.176;2023-01-10T00:09:54;13.07;;;10.05;;
16401;SDS011;8310;44.626;11.176;2023-01-10T00:12:27;12.38;;;9.75;;
16401;SDS011;8310;44.626;11.176;2023-01-10T00:15:12;12.55;;;9.95;;
16401;SDS011;8310;44.626;11.176;2023-01-10T00:17:40;11.07;;;9.30;;
16401;SDS011;8310;44.626;11.176;2023-01-10T00:20:08;12.32;;;9.90;;
16401;SDS011;8310;44.626;11.176;2023-01-10T00:22:37;10.35;;;8.82;;
16401;SDS011;8310;44.626;11.176;2023-01-10T00:25:04;11.93;;;9.35;;
16401;SDS011;8310;44.626;11.176;2023-01-10T00:27:34;10.90;;;9.55;;
16401;SDS011;8310;44.626;11.176;2023-01-10T00:30:02;10.35;;;8.95;;
16401;SDS011;8310;44.626;11.176;2023-01-10T00:32:38;9.93;;;8.32;;
16401;SDS011;8310;44.626;11.176;2023-01-10T00:35:07;10.65;;;8.25;;
16401;SDS011;8310;44.626;11.176;2023-01-10T00:37:38;12.30;;;9.13;;
16401;SDS011;8310;44.626;11.176;2023-01-10T00:40:09;9.98;;;8.10;;
16401;SDS011;8310;44.626;11.176;2023-01-10T00:42:39;12.25;;;9.40;;
16401;SDS011;8310;44.626;11.176;2023-01-10T00:45:23;12.32;;;8.80;;
16401;SDS011;8310;44.626;11.176;2023-01-10T00:47:53;12.25;;;9.15;;
16401;SDS011;8310;44.626;11.176;2023-01-10T00:50:21;9.70;;;8.32;;
16401;SDS011;8310;44.626;11.176;2023-01-10T00:52:49;10.70;;;8.68;;
16401;SDS011;8310;44.626;11.176;2023-01-10T00:55:21;10.43;;;9.02;;
16401;SDS011;8310;44.626;11.176;2023-01-10T00:57:50;11.20;;;9.50;;
16401;SDS011;8310;44.626;11.176;2023-01-10T01:00:18;9.98;;;8.60;;
16401;SDS011;8310;44.626;11.176;2023-01-10T01:02:45;11.52;;;9.43;;
16401;SDS011;8310;44.626;11.176;2023-01-10T01:05:15;10.63;;;9.63;;
16401;SDS011;8310;44.626;11.176;2023-01-10T01:07:43;11.65;;;9.38;;
16401;SDS011;8310;44.626;11.176;2023-01-10T01:10:13;10.90;;;9.73;;
16401;SDS011;8310;44.626;11.176;2023-01-10T01:12:55;8.95;;;8.05;;
16401;SDS011;8310;44.626;11.176;2023-01-10T01:15:24;10.18;;;8.95;;
16401;SDS011;8310;44.626;11.176;2023-01-10T01:17:53;11.48;;;8.77;;
16401;SDS011;8310;44.626;11.176;2023-01-10T01:20:26;11.18;;;9.98;;
16401;SDS011;8310;44.626;11.176;2023-01-10T01:22:54;11.38;;;9.05;;
16401;SDS011;8310;44.626;11.176;2023-01-10T01:25:21;9.82;;;8.30;;
16401;SDS011;8310;44.626;11.176;2023-01-10T01:27:49;9.57;;;7.93;;
16401;SDS011;8310;44.626;11.176;2023-01-10T01:30:18;9.27;;;8.02;;
16401;SDS011;8310;44.626;11.176;2023-01-10T01:32:45;9.90;;;7.63;;
16401;SDS011;8310;44.626;11.176;2023-01-10T01:35:13;11.55;;;8.65;;
16401;SDS011;8310;44.626;11.176;2023-01-10T01:37:41;11.13;;;8.05;;
16401;SDS011;8310;44.626;11.176;2023-01-10T01:40:09;9.90;;;8.90;;
16401;SDS011;8310;44.626;11.176;2023-01-10T01:42:39;11.10;;;9.45;;
16401;SDS011;8310;44.626;11.176;2023-01-10T01:48:17;9.75;;;8.55;;
16401;SDS011;8310;44.626;11.176;2023-01-10T01:50:53;9.48;;;8.10;;
16401;SDS011;8310;44.626;11.176;2023-01-10T01:53:30;11.38;;;10.18;;
16401;SDS011;8310;44.626;11.176;2023-01-10T01:56:04;9.98;;;9.00;;
16401;SDS011;8310;44.626;11.176;2023-01-10T01:58:39;8.55;;;7.70;;
16401;SDS011;8310;44.626;11.176;2023-01-10T02:01:12;9.18;;;8.15;;
16401;SDS011;8310;44.626;11.176;2023-01-10T02:03:43;12.27;;;9.13;;
16401;SDS011;8310;44.626;11.176;2023-01-10T02:06:14;9.45;;;7.57;;
16401;SDS011;8310;44.626;11.176;2023-01-10T02:08:46;9.48;;;8.30;;
16401;SDS011;8310;44.626;11.176;2023-01-10T02:11:20;8.65;;;7.75;;
16401;SDS011;8310;44.626;11.176;2023-01-10T02:13:47;8.38;;;7.57;;
16401;SDS011;8310;44.626;11.176;2023-01-10T02:16:18;9.45;;;8.50;;
16401;SDS011;8310;44.626;11.176;2023-01-10T02:18:46;11.52;;;8.00;;
16401;SDS011;8310;44.626;11.176;2023-01-10T02:27:17;10.77;;;8.15;;
16401;SDS011;8310;44.626;11.176;2023-01-10T02:30:02;9.23;;;7.82;;
16401;SDS011;8310;44.626;11.176;2023-01-10T02:32:55;8.50;;;7.18;;
16401;SDS011;8310;44.626;11.176;2023-01-10T02:35:33;10.45;;;7.95;;
16401;SDS011;8310;44.626;11.176;2023-01-10T02:38:17;8.45;;;7.57;;
16401;SDS011;8310;44.626;11.176;2023-01-10T02:40:54;9.57;;;7.65;;
16401;SDS011;8310;44.626;11.176;2023-01-10T02:43:33;7.97;;;6.60;;
16401;SDS011;8310;44.626;11.176;2023-01-10T02:46:04;10.48;;;6.82;;
16401;SDS011;8310;44.626;11.176;2023-01-10T02:48:35;8.10;;;7.25;;
16401;SDS011;8310;44.626;11.176;2023-01-10T02:51:03;8.35;;;7.25;;
16401;SDS011;8310;44.626;11.176;2023-01-10T02:53:42;11.18;;;7.75;;
16401;SDS011;8310;44.626;11.176;2023-01-10T02:56:30;8.70;;;7.47;;
16401;SDS011;8310;44.626;11.176;2023-01-10T02:59:25;8.57;;;6.53;;
16401;SDS011;8310;44.626;11.176;2023-01-10T03:02:17;9.77;;;7.28;;
16401;SDS011;8310;44.626;11.176;2023-01-10T03:04:57;13.23;;;7.47;;
16401;SDS011;8310;44.626;11.176;2023-01-10T03:07:32;10.15;;;7.72;;
16401;SDS011;8310;44.626;11.176;2023-01-10T03:10:05;8.55;;;7.28;;
16401;SDS011;8310;44.626;11.176;2023-01-10T03:12:38;10.45;;;8.00;;
16401;SDS011;8310;44.626;11.176;2023-01-10T03:15:11;8.30;;;6.88;;
16401;SDS011;8310;44.626;11.176;2023-01-10T03:17:41;7.85;;;6.90;;
16401;SDS011;8310;44.626;11.176;2023-01-10T03:20:13;8.45;;;7.18;;
16401;SDS011;8310;44.626;11.176;2023-01-10T03:22:41;8.70;;;6.75;;
16401;SDS011;8310;44.626;11.176;2023-01-10T03:25:11;8.23;;;6.78;;
16401;SDS011;8310;44.626;11.176;2023-01-10T03:27:43;9.95;;;7.13;;
16401;SDS011;8310;44.626;11.176;2023-01-10T03:30:19;7.75;;;6.70;;
16401;SDS011;8310;44.626;11.176;2023-01-10T03:32:52;9.02;;;6.88;;
16401;SDS011;8310;44.626;11.176;2023-01-10T03:35:23;8.20;;;6.70;;
16401;SDS011;8310;44.626;11.176;2023-01-10T03:38:00;7.13;;;6.43;;
16401;SDS011;8310;44.626;11.176;2023-01-10T03:40:34;8.13;;;6.85;;
16401;SDS011;8310;44.626;11.176;2023-01-10T03:43:09;8.02;;;6.68;;
16401;SDS011;8310;44.626;11.176;2023-01-10T03:45:59;7.10;;;6.40;;
16401;SDS011;8310;44.626;11.176;2023-01-10T03:48:30;6.32;;;5.75;;
16401;SDS011;8310;44.626;11.176;2023-01-10T03:51:04;6.93;;;5.75;;
16401;SDS011;8310;44.626;11.176;2023-01-10T03:53:33;6.75;;;6.15;;
16401;SDS011;8310;44.626;11.176;2023-01-10T03:56:03;6.68;;;6.00;;
16401;SDS011;8310;44.626;11.176;2023-01-10T03:58:31;6.50;;;5.85;;
16401;SDS011;8310;44.626;11.176;2023-01-10T04:01:00;6.75;;;6.00;;
16401;SDS011;8310;44.626;11.176;2023-01-10T04:03:27;6.82;;;6.15;;
16401;SDS011;8310;44.626;11.176;2023-01-10T04:05:56;6.68;;;5.63;;
16401;SDS011;8310;44.626;11.176;2023-01-10T04:08:25;5.63;;;5.10;;
16401;SDS011;8310;44.626;11.176;2023-01-10T04:10:53;5.97;;;5.38;;
16401;SDS011;8310;44.626;11.176;2023-01-10T04:13:22;6.63;;;5.20;;
16401;SDS011;8310;44.626;11.176;2023-01-10T04:15:49;6.05;;;4.85;;
16401;SDS011;8310;44.626;11.176;2023-01-10T04:18:17;5.68;;;4.88;;
16401;SDS011;8310;44.626;11.176;2023-01-10T04:20:45;4.55;;;3.63;;
16401;SDS011;8310;44.626;11.176;2023-01-10T04:23:12;3.20;;;2.90;;
16401;SDS011;8310;44.626;11.176;2023-01-10T04:25:44;3.40;;;3.08;;
16401;SDS011;8310;44.626;11.176;2023-01-10T04:28:13;3.10;;;2.80;;
16401;SDS011;8310;44.626;11.176;2023-01-10T04:30:41;2.63;;;2.42;;
16401;SDS011;8310;44.626;11.176;2023-01-10T04:33:09;2.60;;;2.40;;
16401;SDS011;8310;44.626;11.176;2023-01-10T04:35:36;2.03;;;1.92;;
16401;SDS011;8310;44.626;11.176;2023-01-10T04:38:07;3.00;;;2.22;;
16401;SDS011;8310;44.626;11.176;2023-01-10T04:40:34;2.20;;;2.10;;
16401;SDS011;8310;44.626;11.176;2023-01-10T04:43:03;2.60;;;2.40;;
16401;SDS011;8310;44.626;11.176;2023-01-10T04:45:31;2.53;;;2.33;;
16401;SDS011;8310;44.626;11.176;2023-01-10T04:48:03;2.38;;;2.28;;
16401;SDS011;8310;44.626;11.176;2023-01-10T04:50:30;2.53;;;2.33;;
16401;SDS011;8310;44.626;11.176;2023-01-10T04:52:58;2.15;;;2.05;;
16401;SDS011;8310;44.626;11.176;2023-01-10T04:55:26;2.75;;;2.25;;
16401;SDS011;8310;44.626;11.176;2023-01-10T04:57:56;2.40;;;2.05;;
16401;SDS011;8310;44.626;11.176;2023-01-10T05:00:26;2.30;;;2.20;;
16401;SDS011;8310;44.626;11.176;2023-01-10T05:02:54;2.72;;;2.53;;
16401;SDS011;8310;44.626;11.176;2023-01-10T05:05:22;2.97;;;2.63;;
16401;SDS011;8310;44.626;11.176;2023-01-10T05:07:50;2.85;;;2.65;;
16401;SDS011;8310;44.626;11.176;2023-01-10T05:10:17;2.97;;;2.67;;
16401;SDS011;8310;44.626;11.176;2023-01-10T05:12:45;3.67;;;2.60;;
16401;SDS011;8310;44.626;11.176;2023-01-10T05:15:13;2.67;;;2.47;;
16401;SDS011;8310;44.626;11.176;2023-01-10T05:17:42;2.95;;;2.63;;
16401;SDS011;8310;44.626;11.176;2023-01-10T05:20:10;3.05;;;2.75;;
16401;SDS011;8310;44.626;11.176;2023-01-10T05:22:39;2.80;;;2.60;;
16401;SDS011;8310;44.626;11.176;2023-01-10T05:25:09;3.65;;;3.35;;
16401;SDS011;8310;44.626;11.176;2023-01-10T05:27:41;2.92;;;2.72;;
16401;SDS011;8310;44.626;11.176;2023-01-10T05:30:10;3.47;;;3.17;;
16401;SDS011;8310;44.626;11.176;2023-01-10T05:32:45;3.95;;;2.90;;
16401;SDS011;8310;44.626;11.176;2023-01-10T05:35:12;5.72;;;3.20;;
16401;SDS011;8310;44.626;11.176;2023-01-10T05:37:41;3.35;;;3.10;;
16401;SDS011;8310;44.626;11.176;2023-01-10T05:40:09;3.55;;;3.25;;
16401;SDS011;8310;44.626;11.176;2023-01-10T05:42:37;3.05;;;2.70;;
16401;SDS011;8310;44.626;11.176;2023-01-10T05:45:05;3.25;;;2.83;;
16401;SDS011;8310;44.626;11.176;2023-01-10T05:47:34;3.08;;;2.85;;
16401;SDS011;8310;44.626;11.176;2023-01-10T05:50:03;3.30;;;3.00;;
16401;SDS011;8310;44.626;11.176;2023-01-10T05:52:31;3.15;;;2.85;;
16401;SDS011;8310;44.626;11.176;2023-01-10T05:54:58;3.30;;;2.80;;
16401;SDS011;8310;44.626;11.176;2023-01-10T05:57:26;3.20;;;2.92;;
16401;SDS011;8310;44.626;11.176;2023-01-10T05:59:54;3.25;;;2.80;;
16401;SDS011;8310;44.626;11.176;2023-01-10T06:02:21;3.88;;;3.08;;
16401;SDS011;8310;44.626;11.176;2023-01-10T06:04:50;3.67;;;3.28;;
16401;SDS011;8310;44.626;11.176;2023-01-10T06:07:20;3.42;;;3.13;;
16401;SDS011;8310;44.626;11.176;2023-01-10T06:09:48;3.15;;;2.92;;
16401;SDS011;8310;44.626;11.176;2023-01-10T06:12:16;5.00;;;3.25;;
16401;SDS011;8310;44.626;11.176;2023-01-10T06:14:44;3.40;;;3.10;;
16401;SDS011;8310;44.626;11.176;2023-01-10T06:17:12;4.18;;;3.22;;
16401;SDS011;8310;44.626;11.176;2023-01-10T06:19:39;2.90;;;2.70;;
16401;SDS011;8310;44.626;11.176;2023-01-10T06:22:06;2.90;;;2.70;;
16401;SDS011;8310;44.626;11.176;2023-01-10T06:24:35;3.10;;;2.85;;
16401;SDS011;8310;44.626;11.176;2023-01-10T06:27:03;3.03;;;2.83;;
16401;SDS011;8310;44.626;11.176;2023-01-10T06:29:30;3.83;;;2.88;;
16401;SDS011;8310;44.626;11.176;2023-01-10T06:31:57;3.03;;;2.70;;
16401;SDS011;8310;44.626;11.176;2023-01-10T06:34:25;3.13;;;2.85;;
16401;SDS011;8310;44.626;11.176;2023-01-10T06:36:53;3.25;;;2.95;;
16401;SDS011;8310;44.626;11.176;2023-01-10T06:39:20;2.97;;;2.67;;
16401;SDS011;8310;44.626;11.176;2023-01-10T06:41:49;3.08;;;2.78;;
16401;SDS011;8310;44.626;11.176;2023-01-10T06:44:19;4.10;;;2.75;;
16401;SDS011;8310;44.626;11.176;2023-01-10T06:46:47;2.75;;;2.55;;
16401;SDS011;8310;44.626;11.176;2023-01-10T06:49:14;3.10;;;2.85;;
16401;SDS011;8310;44.626;11.176;2023-01-10T06:51:42;3.45;;;2.65;;
16401;SDS011;8310;44.626;11.176;2023-01-10T06:54:09;2.60;;;2.40;;
16401;SDS011;8310;44.626;11.176;2023-01-10T06:56:37;3.33;;;2.50;;
16401;SDS011;8310;44.626;11.176;2023-01-10T06:59:07;3.95;;;2.50;;
16401;SDS011;8310;44.626;11.176;2023-01-10T07:01:35;3.10;;;2.83;;
16401;SDS011;8310;44.626;11.176;2023-01-10T07:04:02;2.67;;;2.47;;
16401;SDS011;8310;44.626;11.176;2023-01-10T07:06:30;2.60;;;2.40;;
16401;SDS011;8310;44.626;11.176;2023-01-10T07:08:57;3.72;;;2.80;;
16401;SDS011;8310;44.626;11.176;2023-01-10T07:11:25;4.22;;;2.63;;
16401;SDS011;8310;44.626;11.176;2023-01-10T07:13:56;3.22;;;2.40;;
16401;SDS011;8310;44.626;11.176;2023-01-10T07:16:25;2.60;;;2.40;;
16401;SDS011;8310;44.626;11.176;2023-01-10T07:18:53;3.17;;;2.38;;
16401;SDS011;8310;44.626;11.176;2023-01-10T07:21:21;2.30;;;2.10;;
16401;SDS011;8310;44.626;11.176;2023-01-10T07:23:49;2.53;;;1.92;;
16401;SDS011;8310;44.626;11.176;2023-01-10T07:26:17;2.65;;;1.92;;
16401;SDS011;8310;44.626;11.176;2023-01-10T07:28:46;2.60;;;2.40;;
16401;SDS011;8310;44.626;11.176;2023-01-10T07:31:15;2.30;;;2.10;;
16401;SDS011;8310;44.626;11.176;2023-01-10T07:33:45;2.00;;;1.90;;
16401;SDS011;8310;44.626;11.176;2023-01-10T07:36:12;2.10;;;1.90;;
16401;SDS011;8310;44.626;11.176;2023-01-10T07:38:40;1.80;;;1.70;;
16401;SDS011;8310;44.626;11.176;2023-01-10T07:41:07;1.88;;;1.77;;
16401;SDS011;8310;44.626;11.176;2023-01-10T07:43:35;1.85;;;1.75;;
16401;SDS011;8310;44.626;11.176;2023-01-10T07:46:04;1.88;;;1.77;;
16401;SDS011;8310;44.626;11.176;2023-01-10T07:48:33;2.00;;;1.80;;
16401;SDS011;8310;44.626;11.176;2023-01-10T07:51:03;1.95;;;1.77;;
16401;SDS011;8310;44.626;11.176;2023-01-10T07:53:31;1.80;;;1.70;;
16401;SDS011;8310;44.626;11.176;2023-01-10T07:55:58;1.67;;;1.60;;
16401;SDS011;8310;44.626;11.176;2023-01-10T07:58:27;1.65;;;1.55;;
16401;SDS011;8310;44.626;11.176;2023-01-10T08:00:56;1.90;;;1.80;;
16401;SDS011;8310;44.626;11.176;2023-01-10T08:03:24;1.55;;;1.55;;
16401;SDS011;8310;44.626;11.176;2023-01-10T08:05:56;1.80;;;1.70;;
16401;SDS011;8310;44.626;11.176;2023-01-10T08:08:26;1.45;;;1.35;;
16401;SDS011;8310;44.626;11.176;2023-01-10T08:10:54;1.35;;;1.25;;
16401;SDS011;8310;44.626;11.176;2023-01-10T08:13:23;1.92;;;1.83;;
16401;SDS011;8310;44.626;11.176;2023-01-10T08:15:51;2.05;;;1.33;;
16401;SDS011;8310;44.626;11.176;2023-01-10T08:18:19;1.05;;;1.05;;
16401;SDS011;8310;44.626;11.176;2023-01-10T08:20:48;2.83;;;1.40;;
16401;SDS011;8310;44.626;11.176;2023-01-10T08:23:16;1.08;;;1.08;;
16401;SDS011;8310;44.626;11.176;2023-01-10T08:25:45;1.08;;;1.08;;
16401;SDS011;8310;44.626;11.176;2023-01-10T08:28:13;2.28;;;1.13;;
16401;SDS011;8310;44.626;11.176;2023-01-10T08:30:40;1.35;;;1.00;;
16401;SDS011;8310;44.626;11.176;2023-01-10T08:33:09;1.10;;;1.00;;
16401;SDS011;8310;44.626;11.176;2023-01-10T08:35:37;1.85;;;1.08;;
16401;SDS011;8310;44.626;11.176;2023-01-10T08:38:04;0.93;;;0.90;;
16401;SDS011;8310;44.626;11.176;2023-01-10T08:40:32;1.20;;;1.02;;
16401;SDS011;8310;44.626;11.176;2023-01-10T08:43:02;1.10;;;1.00;;
16401;SDS011;8310;44.626;11.176;2023-01-10T08:45:31;0.90;;;0.90;;
16401;SDS011;8310;44.626;11.176;2023-01-10T08:47:59;1.00;;;1.00;;
16401;SDS011;8310;44.626;11.176;2023-01-10T08:50:27;3.75;;;1.33;;
16401;SDS011;8310;44.626;11.176;2023-01-10T08:52:56;1.42;;;1.33;;
16401;SDS011;8310;44.626;11.176;2023-01-10T08:55:23;2.28;;;1.40;;
16401;SDS011;8310;44.626;11.176;2023-01-10T08:57:52;1.55;;;1.30;;
16401;SDS011;8310;44.626;11.176;2023-01-10T09:00:21;1.50;;;1.40;;
16401;SDS011;8310;44.626;11.176;2023-01-10T09:02:49;2.15;;;1.50;;
16401;SDS011;8310;44.626;11.176;2023-01-10T09:05:16;1.38;;;1.20;;
16401;SDS011;8310;44.626;11.176;2023-01-10T09:07:44;1.38;;;1.30;;
16401;SDS011;8310;44.626;11.176;2023-01-10T09:10:12;1.30;;;1.20;;
16401;SDS011;8310;44.626;11.176;2023-01-10T09:12:39;1.25;;;1.15;;
16401;SDS011;8310;44.626;11.176;2023-01-10T09:15:26;1.42;;;1.33;;
16401;SDS011;8310;44.626;11.176;2023-01-10T09:17:55;1.25;;;1.00;;
16401;SDS011;8310;44.626;11.176;2023-01-10T09:20:24;1.55;;;1.10;;
16401;SDS011;8310;44.626;11.176;2023-01-10T09:22:52;1.30;;;1.20;;
16401;SDS011;8310;44.626;11.176;2023-01-10T09:25:20;1.20;;;1.10;;
16401;SDS011;8310;44.626;11.176;2023-01-10T09:27:54;1.10;;;1.10;;
16401;SDS011;8310;44.626;11.176;2023-01-10T09:30:25;0.90;;;0.90;;
16401;SDS011;8310;44.626;11.176;2023-01-10T09:32:54;1.10;;;1.00;;
16401;SDS011;8310;44.626;11.176;2023-01-10T09:35:22;1.35;;;1.25;;
16401;SDS011;8310;44.626;11.176;2023-01-10T09:37:52;1.10;;;1.10;;
16401;SDS011;8310;44.626;11.176;2023-01-10T09:40:23;1.90;;;1.35;;
16401;SDS011;8310;44.626;11.176;2023-01-10T09:43:14;1.10;;;1.10;;
16401;SDS011;8310;44.626;11.176;2023-01-10T09:45:49;1.85;;;1.20;;
16401;SDS011;8310;44.626;11.176;2023-01-10T09:48:23;1.60;;;1.50;;
16401;SDS011;8310;44.626;11.176;2023-01-10T09:51:01;1.85;;;1.15;;
16401;SDS011;8310;44.626;11.176;2023-01-10T09:53:38;1.20;;;1.20;;
16401;SDS011;8310;44.626;11.176;2023-01-10T09:56:08;1.45;;;1.10;;
16401;SDS011;8310;44.626;11.176;2023-01-10T09:58:37;2.35;;;1.27;;
16401;SDS011;8310;44.626;11.176;2023-01-10T10:01:08;1.50;;;1.20;;
16401;SDS011;8310;44.626;11.176;2023-01-10T10:03:40;1.38;;;1.00;;
16401;SDS011;8310;44.626;11.176;2023-01-10T10:06:12;1.88;;;1.25;;
16401;SDS011;8310;44.626;11.176;2023-01-10T10:08:41;3.75;;;1.10;;
16401;SDS011;8310;44.626;11.176;2023-01-10T10:14:03;1.20;;;1.20;;
16401;SDS011;8310;44.626;11.176;2023-01-10T10:16:41;1.70;;;1.13;;
16401;SDS011;8310;44.626;11.176;2023-01-10T10:19:25;1.05;;;1.05;;
16401;SDS011;8310;44.626;11.176;2023-01-10T10:22:03;1.30;;;1.20;;
16401;SDS011;8310;44.626;11.176;2023-01-10T10:24:41;1.73;;;1.23;;
16401;SDS011;8310;44.626;11.176;2023-01-10T10:27:21;1.42;;;1.00;;
16401;SDS011;8310;44.626;11.176;2023-01-10T10:29:56;1.48;;;1.15;;
16401;SDS011;8310;44.626;11.176;2023-01-10T10:32:55;0.95;;;0.95;;
16401;SDS011;8310;44.626;11.176;2023-01-10T10:35:31;5.55;;;1.50;;
16401;SDS011;8310;44.626;11.176;2023-01-10T10:38:03;3.67;;;1.02;;
16401;SDS011;8310;44.626;11.176;2023-01-10T10:40:36;1.27;;;1.25;;
16401;SDS011;8310;44.626;11.176;2023-01-10T10:43:10;1.98;;;1.05;;
16401;SDS011;8310;44.626;11.176;2023-01-10T10:45:45;2.08;;;1.30;;
16401;SDS011;8310;44.626;11.176;2023-01-10T10:48:20;1.58;;;1.30;;
16401;SDS011;8310;44.626;11.176;2023-01-10T10:50:52;1.85;;;1.15;;
16401;SDS011;8310;44.626;11.176;2023-01-10T10:53:25;1.05;;;1.05;;
16401;SDS011;8310;44.626;11.176;2023-01-10T10:55:53;1.10;;;1.10;;
16401;SDS011;8310;44.626;11.176;2023-01-10T10:58:20;0.90;;;0.90;;
16401;SDS011;8310;44.626;11.176;2023-01-10T11:00:49;1.95;;;1.48;;
16401;SDS011;8310;44.626;11.176;2023-01-10T11:03:24;1.00;;;1.00;;
16401;SDS011;8310;44.626;11.176;2023-01-10T11:05:55;1.02;;;1.02;;
16401;SDS011;8310;44.626;11.176;2023-01-10T11:08:24;1.02;;;1.02;;
16401;SDS011;8310;44.626;11.176;2023-01-10T11:10:53;1.10;;;1.10;;
16401;SDS011;8310;44.626;11.176;2023-01-10T11:13:25;1.67;;;1.00;;
16401;SDS011;8310;44.626;11.176;2023-01-10T11:16:03;1.23;;;1.15;;
16401;SDS011;8310;44.626;11.176;2023-01-10T11:18:33;1.30;;;1.30;;
16401;SDS011;8310;44.626;11.176;2023-01-10T11:21:03;1.83;;;1.00;;
16401;SDS011;8310;44.626;11.176;2023-01-10T11:23:36;1.65;;;1.00;;
16401;SDS011;8310;44.626;11.176;2023-01-10T11:26:08;2.15;;;1.98;;
16401;SDS011;8310;44.626;11.176;2023-01-10T11:28:49;1.33;;;1.10;;
16401;SDS011;8310;44.626;11.176;2023-01-10T11:31:24;1.10;;;1.10;;
16401;SDS011;8310;44.626;11.176;2023-01-10T11:33:55;1.15;;;1.00;;
16401;SDS011;8310;44.626;11.176;2023-01-10T11:36:23;1.02;;;0.82;;
16401;SDS011;8310;44.626;11.176;2023-01-10T11:38:58;0.77;;;0.77;;
16401;SDS011;8310;44.626;11.176;2023-01-10T11:41:27;0.75;;;0.75;;
16401;SDS011;8310;44.626;11.176;2023-01-10T11:44:14;2.88;;;1.10;;
16401;SDS011;8310;44.626;11.176;2023-01-10T11:46:43;1.65;;;0.90;;
16401;SDS011;8310;44.626;11.176;2023-01-10T11:49:14;1.85;;;1.05;;
16401;SDS011;8310;44.626;11.176;2023-01-10T11:51:51;2.67;;;1.10;;
16401;SDS011;8310;44.626;11.176;2023-01-10T11:54:22;1.10;;;1.10;;
16401;SDS011;8310;44.626;11.176;2023-01-10T11:56:53;0.90;;;0.82;;
16401;SDS011;8310;44.626;11.176;2023-01-10T11:59:23;2.03;;;1.00;;
16401;SDS011;8310;44.626;11.176;2023-01-10T12:01:53;0.80;;;0.80;;
16401;SDS011;8310;44.626;11.176;2023-01-10T12:04:27;0.80;;;0.80;;
16401;SDS011;8310;44.626;11.176;2023-01-10T12:06:58;1.13;;;1.02;;
16401;SDS011;8310;44.626;11.176;2023-01-10T12:09:32;1.33;;;0.80;;
16401;SDS011;8310;44.626;11.176;2023-01-10T12:12:01;0.63;;;0.60;;
16401;SDS011;8310;44.626;11.176;2023-01-10T12:14:29;0.60;;;0.60;;
16401;SDS011;8310;44.626;11.176;2023-01-10T12:16:57;0.70;;;0.70;;
16401;SDS011;8310;44.626;11.176;2023-01-10T12:19:30;0.65;;;0.65;;
16401;SDS011;8310;44.626;11.176;2023-01-10T12:21:58;0.73;;;0.70;;
16401;SDS011;8310;44.626;11.176;2023-01-10T12:24:31;1.20;;;0.93;;
16401;SDS011;8310;44.626;11.176;2023-01-10T12:27:08;0.70;;;0.70;;
16401;SDS011;8310;44.626;11.176;2023-01-10T12:29:40;0.70;;;0.70;;
16401;SDS011;8310;44.626;11.176;2023-01-10T12:32:16;0.93;;;0.93;;
16401;SDS011;8310;44.626;11.176;2023-01-10T12:34:49;0.70;;;0.70;;
16401;SDS011;8310;44.626;11.176;2023-01-10T12:37:25;0.75;;;0.70;;
16401;SDS011;8310;44.626;11.176;2023-01-10T12:39:58;0.63;;;0.63;;
16401;SDS011;8310;44.626;11.176;2023-01-10T12:42:33;0.75;;;0.70;;
16401;SDS011;8310;44.626;11.176;2023-01-10T12:45:27;0.50;;;0.50;;
16401;SDS011;8310;44.626;11.176;2023-01-10T12:48:02;0.80;;;0.80;;
16401;SDS011;8310;44.626;11.176;2023-01-10T12:50:34;1.63;;;0.90;;
16401;SDS011;8310;44.626;11.176;2023-01-10T12:53:10;0.55;;;0.55;;
16401;SDS011;8310;44.626;11.176;2023-01-10T12:55:45;0.52;;;0.52;;
16401;SDS011;8310;44.626;11.176;2023-01-10T12:58:16;0.98;;;0.77;;
16401;SDS011;8310;44.626;11.176;2023-01-10T13:00:54;1.08;;;0.98;;
16401;SDS011;8310;44.626;11.176;2023-01-10T13:03:26;0.98;;;0.98;;
16401;SDS011;8310;44.626;11.176;2023-01-10T13:05:57;1.00;;;0.80;;
16401;SDS011;8310;44.626;11.176;2023-01-10T13:08:25;2.53;;;0.90;;
16401;SDS011;8310;44.626;11.176;2023-01-10T13:10:56;3.13;;;1.25;;
16401;SDS011;8310;44.626;11.176;2023-01-10T13:13:26;1.65;;;0.88;;
16401;SDS011;8310;44.626;11.176;2023-01-10T13:16:01;1.60;;;0.70;;
16401;SDS011;8310;44.626;11.176;2023-01-10T13:18:57;1.80;;;0.80;;
16401;SDS011;8310;44.626;11.176;2023-01-10T13:21:28;1.60;;;0.63;;
16401;SDS011;8310;44.626;11.176;2023-01-10T13:23:57;0.70;;;0.70;;
16401;SDS011;8310;44.626;11.176;2023-01-10T13:29:17;0.93;;;0.82;;
16401;SDS011;8310;44.626;11.176;2023-01-10T13:31:46;0.82;;;0.82;;
16401;SDS011;8310;44.626;11.176;2023-01-10T13:34:21;1.38;;;0.80;;
16401;SDS011;8310;44.626;11.176;2023-01-10T13:36:53;1.38;;;1.00;;
16401;SDS011;8310;44.626;11.176;2023-01-10T13:39:25;1.63;;;1.10;;
16401;SDS011;8310;44.626;11.176;2023-01-10T13:42:11;1.45;;;0.90;;
16401;SDS011;8310;44.626;11.176;2023-01-10T13:45:13;0.90;;;0.90;;
16401;SDS011;8310;44.626;11.176;2023-01-10T13:47:55;1.67;;;1.00;;
16401;SDS011;8310;44.626;11.176;2023-01-10T13:50:48;1.13;;;1.13;;
16401;SDS011;8310;44.626;11.176;2023-01-10T13:56:28;1.02;;;1.00;;
16401;SDS011;8310;44.626;11.176;2023-01-10T13:59:01;3.90;;;1.42;;
16401;SDS011;8310;44.626;11.176;2023-01-10T14:01:50;0.88;;;0.88;;
16401;SDS011;8310;44.626;11.176;2023-01-10T14:04:36;1.25;;;0.95;;
16401;SDS011;8310;44.626;11.176;2023-01-10T14:07:11;1.58;;;1.20;;
16401;SDS011;8310;44.626;11.176;2023-01-10T14:09:42;1.10;;;1.10;;
16401;SDS011;8310;44.626;11.176;2023-01-10T14:12:18;2.97;;;1.13;;
16401;SDS011;8310;44.626;11.176;2023-01-10T14:14:50;1.63;;;1.27;;
16401;SDS011;8310;44.626;11.176;2023-01-10T14:17:23;0.85;;;0.85;;
16401;SDS011;8310;44.626;11.176;2023-01-10T14:20:06;0.90;;;0.90;;
16401;SDS011;8310;44.626;11.176;2023-01-10T14:22:55;1.35;;;1.25;;
16401;SDS011;8310;44.626;11.176;2023-01-10T14:25:25;1.40;;;1.00;;
16401;SDS011;8310;44.626;11.176;2023-01-10T14:27:55;0.98;;;0.98;;
16401;SDS011;8310;44.626;11.176;2023-01-10T14:30:25;1.02;;;0.90;;
16401;SDS011;8310;44.626;11.176;2023-01-10T14:32:56;0.80;;;0.80;;
16401;SDS011;8310;44.626;11.176;2023-01-10T14:35:31;0.98;;;0.98;;
16401;SDS011;8310;44.626;11.176;2023-01-10T14:38:02;1.20;;;1.13;;
16401;SDS011;8310;44.626;11.176;2023-01-10T14:40:36;0.93;;;0.93;;
16401;SDS011;8310;44.626;11.176;2023-01-10T14:43:10;1.83;;;1.20;;
16401;SDS011;8310;44.626;11.176;2023-01-10T14:45:43;1.10;;;1.10;;
16401;SDS011;8310;44.626;11.176;2023-01-10T14:48:21;1.08;;;1.08;;
16401;SDS011;8310;44.626;11.176;2023-01-10T14:50:51;4.25;;;1.27;;
16401;SDS011;8310;44.626;11.176;2023-01-10T14:53:26;1.38;;;0.90;;
16401;SDS011;8310;44.626;11.176;2023-01-10T14:55:54;1.50;;;1.08;;
16401;SDS011;8310;44.626;11.176;2023-01-10T14:58:24;1.55;;;1.13;;
16401;SDS011;8310;44.626;11.176;2023-01-10T15:00:52;1.15;;;0.93;;
16401;SDS011;8310;44.626;11.176;2023-01-10T15:03:21;1.20;;;1.08;;
16401;SDS011;8310;44.626;11.176;2023-01-10T15:05:50;1.02;;;1.02;;
16401;SDS011;8310;44.626;11.176;2023-01-10T15:08:20;0.98;;;0.88;;
16401;SDS011;8310;44.626;11.176;2023-01-10T15:10:50;1.70;;;0.93;;
16401;SDS011;8310;44.626;11.176;2023-01-10T15:13:21;1.75;;;0.90;;
16401;SDS011;8310;44.626;11.176;2023-01-10T15:15:53;1.23;;;0.95;;
16401;SDS011;8310;44.626;11.176;2023-01-10T15:18:27;1.73;;;1.00;;
16401;SDS011;8310;44.626;11.176;2023-01-10T15:20:57;2.25;;;0.90;;
16401;SDS011;8310;44.626;11.176;2023-01-10T15:23:34;0.80;;;0.80;;
16401;SDS011;8310;44.626;11.176;2023-01-10T15:26:03;1.20;;;0.85;;
16401;SDS011;8310;44.626;11.176;2023-01-10T15:28:35;1.65;;;1.10;;